sensor_id;sensor_type;location;lat;lon;timestamp;pressure;altitude;pressure_sealevel;temperature;humidity
58761;BME280;44529;47.464;19.014;2023-02-18T00:00:48;100536.97;;;10.99;76.63
58761;BME280;44529;47.464;19.014;2023-02-18T00:03:51;100536.56;;;11.06;76.75
58761;BME280;44529;47.464;19.014;2023-02-18T00:06:53;100538.22;;;11.16;76.43
58761;BME280;44529;47.464;19.014;2023-02-18T00:09:56;100532.44;;;11.08;76.76
58761;BME280;44529;47.464;19.014;2023-02-18T00:12:58;100539.34;;;11.15;76.83
58761;BME280;44529;47.464;19.014;2023-02-18T00:16:04;100529.38;;;11.24;76.71
58761;BME280;44529;47.464;19.014;2023-02-18T00:19:10;100521.47;;;11.36;76.68
58761;BME280;44529;47.464;19.014;2023-02-18T00:22:13;100520.72;;;11.44;76.50
58761;BME280;44529;47.464;19.014;2023-02-18T00:25:16;100514.72;;;11.56;76.40
58761;BME280;44529;47.464;19.014;2023-02-18T00:28:18;100517.47;;;11.64;76.16
58761;BME280;44529;47.464;19.014;2023-02-18T00:31:26;100504.13;;;11.68;76.26
58761;BME280;44529;47.464;19.014;2023-02-18T00:34:29;100517.03;;;11.71;76.36
58761;BME280;44529;47.464;19.014;2023-02-18T00:37:31;100503.53;;;11.80;76.37
58761;BME280;44529;47.464;19.014;2023-02-18T00:40:37;100518.41;;;11.91;76.00
58761;BME280;44529;47.464;19.014;2023-02-18T00:43:40;100510.47;;;11.95;75.82
58761;BME280;44529;47.464;19.014;2023-02-18T00:46:42;100506.19;;;12.02;75.72
58761;BME280;44529;47.464;19.014;2023-02-18T00:49:45;100507.94;;;11.98;76.00
58761;BME280;44529;47.464;19.014;2023-02-18T00:52:47;100504.44;;;12.06;75.60
58761;BME280;44529;47.464;19.014;2023-02-18T00:55:49;100502.41;;;12.20;75.14
58761;BME280;44529;47.464;19.014;2023-02-18T00:58:52;100492.81;;;12.14;75.34
58761;BME280;44529;47.464;19.014;2023-02-18T01:01:54;100492.22;;;12.17;75.29
58761;BME280;44529;47.464;19.014;2023-02-18T01:04:57;100477.06;;;12.25;75.05
58761;BME280;44529;47.464;19.014;2023-02-18T01:07:59;100483.94;;;12.31;74.83
58761;BME280;44529;47.464;19.014;2023-02-18T01:11:04;100474.22;;;12.30;74.95
58761;BME280;44529;47.464;19.014;2023-02-18T01:14:06;100479.44;;;12.27;75.03
58761;BME280;44529;47.464;19.014;2023-02-18T01:17:09;100467.47;;;12.28;75.15
58761;BME280;44529;47.464;19.014;2023-02-18T01:20:14;100465.25;;;12.30;75.05
58761;BME280;44529;47.464;19.014;2023-02-18T01:23:16;100464.63;;;12.33;75.08
58761;BME280;44529;47.464;19.014;2023-02-18T01:26:19;100455.69;;;12.41;74.69
58761;BME280;44529;47.464;19.014;2023-02-18T01:29:21;100468.16;;;12.51;74.27
58761;BME280;44529;47.464;19.014;2023-02-18T01:32:24;100471.66;;;12.60;73.80
58761;BME280;44529;47.464;19.014;2023-02-18T01:35:26;100460.00;;;12.59;73.64
58761;BME280;44529;47.464;19.014;2023-02-18T01:38:29;100463.38;;;12.56;73.78
58761;BME280;44529;47.464;19.014;2023-02-18T01:41:32;100456.81;;;12.57;73.64
58761;BME280;44529;47.464;19.014;2023-02-18T01:44:34;100445.31;;;12.60;73.33
58761;BME280;44529;47.464;19.014;2023-02-18T01:47:37;100447.88;;;12.65;72.93
58761;BME280;44529;47.464;19.014;2023-02-18T01:50:46;100454.75;;;12.63;73.02
58761;BME280;44529;47.464;19.014;2023-02-18T01:54:37;100438.78;;;12.70;72.37
58761;BME280;44529;47.464;19.014;2023-02-18T01:57:30;100451.06;;;12.67;72.42
58761;BME280;44529;47.464;19.014;2023-02-18T02:00:35;100449.16;;;12.77;72.05
58761;BME280;44529;47.464;19.014;2023-02-18T02:03:38;100465.91;;;12.79;71.83
58761;BME280;44529;47.464;19.014;2023-02-18T02:06:40;100447.19;;;13.03;70.45
58761;BME280;44529;47.464;19.014;2023-02-18T02:09:43;100454.53;;;13.11;70.28
58761;BME280;44529;47.464;19.014;2023-02-18T02:16:21;100426.53;;;13.37;68.62
58761;BME280;44529;47.464;19.014;2023-02-18T02:37:30;100427.25;;;13.84;65.82
58761;BME280;44529;47.464;19.014;2023-02-18T02:40:23;100445.44;;;13.92;65.50
58761;BME280;44529;47.464;19.014;2023-02-18T02:43:55;100440.31;;;13.91;65.25
58761;BME280;44529;47.464;19.014;2023-02-18T02:47:07;100434.25;;;13.94;65.19
58761;BME280;44529;47.464;19.014;2023-02-18T02:50:19;100438.03;;;14.01;64.96
58761;BME280;44529;47.464;19.014;2023-02-18T02:53:29;100461.38;;;14.02;64.95
58761;BME280;44529;47.464;19.014;2023-02-18T02:56:31;100433.09;;;13.95;65.15
58761;BME280;44529;47.464;19.014;2023-02-18T02:59:36;100447.16;;;13.97;65.08
58761;BME280;44529;47.464;19.014;2023-02-18T03:13:06;100468.09;;;14.05;64.68
58761;BME280;44529;47.464;19.014;2023-02-18T03:16:23;100455.31;;;13.97;65.03
58761;BME280;44529;47.464;19.014;2023-02-18T03:19:31;100441.88;;;14.00;64.80
58761;BME280;44529;47.464;19.014;2023-02-18T03:22:46;100457.66;;;14.07;64.70
58761;BME280;44529;47.464;19.014;2023-02-18T03:25:50;100449.56;;;13.98;65.04
58761;BME280;44529;47.464;19.014;2023-02-18T03:28:55;100477.56;;;13.99;64.95
58761;BME280;44529;47.464;19.014;2023-02-18T03:32:02;100455.81;;;13.99;65.10
58761;BME280;44529;47.464;19.014;2023-02-18T03:35:16;100458.25;;;13.92;65.38
58761;BME280;44529;47.464;19.014;2023-02-18T03:38:27;100457.28;;;13.88;65.81
58761;BME280;44529;47.464;19.014;2023-02-18T03:41:31;100458.25;;;13.92;65.74
58761;BME280;44529;47.464;19.014;2023-02-18T03:44:34;100472.75;;;13.96;65.64
58761;BME280;44529;47.464;19.014;2023-02-18T03:47:36;100453.13;;;13.90;66.04
58761;BME280;44529;47.464;19.014;2023-02-18T03:50:39;100462.06;;;13.91;65.84
58761;BME280;44529;47.464;19.014;2023-02-18T03:53:41;100468.69;;;13.81;66.41
58761;BME280;44529;47.464;19.014;2023-02-18T03:56:46;100481.03;;;13.78;66.49
58761;BME280;44529;47.464;19.014;2023-02-18T03:59:48;100475.75;;;13.73;66.68
58761;BME280;44529;47.464;19.014;2023-02-18T04:02:50;100477.63;;;13.81;66.32
58761;BME280;44529;47.464;19.014;2023-02-18T04:05:53;100485.16;;;13.76;66.74
58761;BME280;44529;47.464;19.014;2023-02-18T04:08:55;100482.50;;;13.67;67.25
58761;BME280;44529;47.464;19.014;2023-02-18T04:11:58;100495.78;;;13.60;67.59
58761;BME280;44529;47.464;19.014;2023-02-18T04:15:00;100484.56;;;13.70;67.34
58761;BME280;44529;47.464;19.014;2023-02-18T04:18:03;100480.56;;;13.68;67.64
58761;BME280;44529;47.464;19.014;2023-02-18T04:21:05;100482.72;;;13.53;68.29
58761;BME280;44529;47.464;19.014;2023-02-18T04:24:08;100493.59;;;13.53;68.26
58761;BME280;44529;47.464;19.014;2023-02-18T04:27:10;100490.38;;;13.51;68.33
58761;BME280;44529;47.464;19.014;2023-02-18T04:30:13;100487.19;;;13.49;68.44
58761;BME280;44529;47.464;19.014;2023-02-18T04:33:15;100497.13;;;13.37;68.86
58761;BME280;44529;47.464;19.014;2023-02-18T04:36:17;100489.28;;;13.44;68.92
58761;BME280;44529;47.464;19.014;2023-02-18T04:39:20;100491.25;;;13.35;69.44
58761;BME280;44529;47.464;19.014;2023-02-18T04:42:22;100490.94;;;13.27;69.60
58761;BME280;44529;47.464;19.014;2023-02-18T04:45:25;100493.03;;;13.22;69.80
58761;BME280;44529;47.464;19.014;2023-02-18T04:48:29;100494.94;;;13.21;69.87
58761;BME280;44529;47.464;19.014;2023-02-18T04:51:31;100519.06;;;13.14;70.42
58761;BME280;44529;47.464;19.014;2023-02-18T04:54:33;100514.09;;;13.25;70.08
58761;BME280;44529;47.464;19.014;2023-02-18T04:57:36;100516.00;;;13.16;71.06
58761;BME280;44529;47.464;19.014;2023-02-18T05:00:38;100512.16;;;13.17;71.37
58761;BME280;44529;47.464;19.014;2023-02-18T05:03:40;100507.84;;;13.07;71.67
58761;BME280;44529;47.464;19.014;2023-02-18T05:06:43;100507.53;;;13.00;71.88
58761;BME280;44529;47.464;19.014;2023-02-18T05:09:45;100516.19;;;12.93;71.83
58761;BME280;44529;47.464;19.014;2023-02-18T05:12:48;100512.19;;;12.91;72.03
58761;BME280;44529;47.464;19.014;2023-02-18T05:15:50;100521.31;;;12.95;71.75
58761;BME280;44529;47.464;19.014;2023-02-18T05:18:52;100513.31;;;12.90;71.98
58761;BME280;44529;47.464;19.014;2023-02-18T05:21:55;100519.22;;;12.74;72.93
58761;BME280;44529;47.464;19.014;2023-02-18T05:24:57;100523.84;;;12.74;72.97
58761;BME280;44529;47.464;19.014;2023-02-18T05:27:59;100545.25;;;12.76;72.96
58761;BME280;44529;47.464;19.014;2023-02-18T05:31:02;100542.34;;;12.81;73.04
58761;BME280;44529;47.464;19.014;2023-02-18T05:34:04;100542.34;;;12.81;73.26
58761;BME280;44529;47.464;19.014;2023-02-18T05:37:08;100545.72;;;12.78;73.47
58761;BME280;44529;47.464;19.014;2023-02-18T05:40:11;100551.28;;;12.81;73.53
58761;BME280;44529;47.464;19.014;2023-02-18T05:43:13;100550.81;;;12.79;73.75
58761;BME280;44529;47.464;19.014;2023-02-18T05:46:16;100558.97;;;12.70;74.19
58761;BME280;44529;47.464;19.014;2023-02-18T05:49:18;100554.34;;;12.62;74.53
58761;BME280;44529;47.464;19.014;2023-02-18T05:52:21;100573.31;;;12.71;74.39
58761;BME280;44529;47.464;19.014;2023-02-18T05:55:23;100570.94;;;12.69;74.40
58761;BME280;44529;47.464;19.014;2023-02-18T05:58:25;100577.47;;;12.68;74.61
58761;BME280;44529;47.464;19.014;2023-02-18T06:01:28;100585.44;;;12.65;74.68
58761;BME280;44529;47.464;19.014;2023-02-18T06:04:31;100596.78;;;12.67;74.37
58761;BME280;44529;47.464;19.014;2023-02-18T06:07:33;100595.38;;;12.69;73.87
58761;BME280;44529;47.464;19.014;2023-02-18T06:10:36;100586.09;;;12.70;73.88
58761;BME280;44529;47.464;19.014;2023-02-18T06:13:38;100597.91;;;12.66;74.21
58761;BME280;44529;47.464;19.014;2023-02-18T06:16:40;100600.91;;;12.56;75.08
58761;BME280;44529;47.464;19.014;2023-02-18T06:19:43;100592.75;;;12.56;74.51
58761;BME280;44529;47.464;19.014;2023-02-18T06:22:46;100615.75;;;12.58;74.61
58761;BME280;44529;47.464;19.014;2023-02-18T06:25:48;100608.75;;;12.57;74.08
58761;BME280;44529;47.464;19.014;2023-02-18T06:28:51;100631.03;;;12.37;74.98
58761;BME280;44529;47.464;19.014;2023-02-18T06:31:53;100608.97;;;12.30;75.34
58761;BME280;44529;47.464;19.014;2023-02-18T06:34:56;100637.84;;;12.34;75.71
58761;BME280;44529;47.464;19.014;2023-02-18T06:37:58;100642.12;;;12.27;78.95
58761;BME280;44529;47.464;19.014;2023-02-18T06:41:01;100634.25;;;12.16;81.11
58761;BME280;44529;47.464;19.014;2023-02-18T06:44:03;100627.25;;;12.15;81.54
58761;BME280;44529;47.464;19.014;2023-02-18T06:47:06;100624.38;;;12.12;81.43
58761;BME280;44529;47.464;19.014;2023-02-18T06:50:08;100623.19;;;12.04;81.40
58761;BME280;44529;47.464;19.014;2023-02-18T06:53:11;100620.81;;;12.03;81.82
58761;BME280;44529;47.464;19.014;2023-02-18T06:56:13;100629.75;;;12.03;81.90
58761;BME280;44529;47.464;19.014;2023-02-18T06:59:16;100628.78;;;11.99;82.34
58761;BME280;44529;47.464;19.014;2023-02-18T07:02:18;100632.72;;;11.93;83.34
58761;BME280;44529;47.464;19.014;2023-02-18T07:05:20;100631.75;;;11.89;83.31
58761;BME280;44529;47.464;19.014;2023-02-18T07:08:23;100635.91;;;11.95;83.37
58761;BME280;44529;47.464;19.014;2023-02-18T07:11:25;100630.97;;;11.97;83.41
58761;BME280;44529;47.464;19.014;2023-02-18T07:14:27;100633.34;;;11.90;83.97
58761;BME280;44529;47.464;19.014;2023-02-18T07:17:30;100633.03;;;11.91;84.07
58761;BME280;44529;47.464;19.014;2023-02-18T07:20:32;100638.94;;;11.93;83.72
58761;BME280;44529;47.464;19.014;2023-02-18T07:23:35;100639.75;;;11.94;84.09
58761;BME280;44529;47.464;19.014;2023-02-18T07:26:37;100641.19;;;11.91;84.01
58761;BME280;44529;47.464;19.014;2023-02-18T07:29:40;100642.41;;;11.85;83.98
58761;BME280;44529;47.464;19.014;2023-02-18T07:32:42;100661.06;;;11.87;83.03
58761;BME280;44529;47.464;19.014;2023-02-18T07:35:45;100639.38;;;11.87;83.81
58761;BME280;44529;47.464;19.014;2023-02-18T07:38:47;100641.09;;;11.83;83.21
58761;BME280;44529;47.464;19.014;2023-02-18T07:41:49;100628.91;;;11.94;82.84
58761;BME280;44529;47.464;19.014;2023-02-18T07:44:51;100630.25;;;12.05;81.76
58761;BME280;44529;47.464;19.014;2023-02-18T07:47:54;100628.56;;;12.18;80.77
58761;BME280;44529;47.464;19.014;2023-02-18T07:50:56;100620.72;;;12.16;81.21
58761;BME280;44529;47.464;19.014;2023-02-18T07:53:58;100618.31;;;12.15;81.04
58761;BME280;44529;47.464;19.014;2023-02-18T07:57:01;100623.59;;;12.20;81.10
58761;BME280;44529;47.464;19.014;2023-02-18T08:00:03;100625.06;;;12.26;81.20
58761;BME280;44529;47.464;19.014;2023-02-18T08:03:14;100609.63;;;12.35;80.28
58761;BME280;44529;47.464;19.014;2023-02-18T08:06:21;100615.25;;;12.47;79.99
58761;BME280;44529;47.464;19.014;2023-02-18T08:09:26;100618.62;;;12.53;79.42
58761;BME280;44529;47.464;19.014;2023-02-18T08:12:28;100621.50;;;12.65;78.50
58761;BME280;44529;47.464;19.014;2023-02-18T08:15:30;100615.91;;;12.62;78.27
58761;BME280;44529;47.464;19.014;2023-02-18T08:18:33;100620.25;;;12.71;78.62
58761;BME280;44529;47.464;19.014;2023-02-18T08:21:35;100617.69;;;12.75;78.27
58761;BME280;44529;47.464;19.014;2023-02-18T08:24:37;100620.13;;;12.85;76.51
58761;BME280;44529;47.464;19.014;2023-02-18T08:27:39;100618.34;;;12.81;76.67
58761;BME280;44529;47.464;19.014;2023-02-18T08:30:49;100623.16;;;12.84;77.11
58761;BME280;44529;47.464;19.014;2023-02-18T08:33:54;100625.53;;;12.94;76.22
58761;BME280;44529;47.464;19.014;2023-02-18T08:36:57;100618.84;;;13.00;75.69
58761;BME280;44529;47.464;19.014;2023-02-18T08:40:01;100631.16;;;12.97;75.67
58761;BME280;44529;47.464;19.014;2023-02-18T08:43:03;100620.94;;;13.12;74.24
58761;BME280;44529;47.464;19.014;2023-02-18T08:46:05;100619.81;;;13.13;74.81
58761;BME280;44529;47.464;19.014;2023-02-18T08:49:08;100630.19;;;13.19;74.64
58761;BME280;44529;47.464;19.014;2023-02-18T08:52:10;100620.81;;;13.25;74.14
58761;BME280;44529;47.464;19.014;2023-02-18T08:55:13;100614.59;;;13.34;73.58
58761;BME280;44529;47.464;19.014;2023-02-18T08:58:15;100618.56;;;13.45;72.70
58761;BME280;44529;47.464;19.014;2023-02-18T09:01:18;100621.75;;;13.47;72.73
58761;BME280;44529;47.464;19.014;2023-02-18T09:04:21;100624.28;;;13.52;73.07
58761;BME280;44529;47.464;19.014;2023-02-18T09:07:24;100636.78;;;13.53;73.26
58761;BME280;44529;47.464;19.014;2023-02-18T09:10:27;100614.84;;;13.58;72.66
58761;BME280;44529;47.464;19.014;2023-02-18T09:13:30;100622.56;;;13.47;73.04
58761;BME280;44529;47.464;19.014;2023-02-18T09:16:32;100632.12;;;13.45;73.08
58761;BME280;44529;47.464;19.014;2023-02-18T09:19:35;100618.25;;;13.38;73.46
58761;BME280;44529;47.464;19.014;2023-02-18T09:22:37;100620.00;;;13.25;74.87
58761;BME280;44529;47.464;19.014;2023-02-18T09:25:39;100617.94;;;13.31;75.08
58761;BME280;44529;47.464;19.014;2023-02-18T09:28:42;100614.09;;;13.23;76.85
58761;BME280;44529;47.464;19.014;2023-02-18T09:31:45;100610.72;;;13.17;75.48
58761;BME280;44529;47.464;19.014;2023-02-18T09:34:47;100603.25;;;13.23;74.99
58761;BME280;44529;47.464;19.014;2023-02-18T09:37:50;100602.09;;;13.33;74.07
58761;BME280;44529;47.464;19.014;2023-02-18T09:40:53;100596.34;;;13.43;73.10
58761;BME280;44529;47.464;19.014;2023-02-18T09:44:04;100599.06;;;13.43;73.53
58761;BME280;44529;47.464;19.014;2023-02-18T09:50:32;100598.56;;;13.58;73.52
58761;BME280;44529;47.464;19.014;2023-02-18T09:53:35;100597.91;;;13.61;72.20
58761;BME280;44529;47.464;19.014;2023-02-18T09:56:38;100598.56;;;13.49;72.27
58761;BME280;44529;47.464;19.014;2023-02-18T09:59:42;100609.25;;;13.63;71.73
58761;BME280;44529;47.464;19.014;2023-02-18T10:06:19;100594.22;;;13.74;71.10
58761;BME280;44529;47.464;19.014;2023-02-18T10:09:30;100604.91;;;13.79;71.08
58761;BME280;44529;47.464;19.014;2023-02-18T10:12:34;100584.09;;;13.83;70.63
58761;BME280;44529;47.464;19.014;2023-02-18T10:15:37;100587.03;;;13.78;70.84
58761;BME280;44529;47.464;19.014;2023-02-18T10:18:47;100600.59;;;13.78;70.80
58761;BME280;44529;47.464;19.014;2023-02-18T10:21:50;100592.59;;;13.82;70.99
58761;BME280;44529;47.464;19.014;2023-02-18T10:24:59;100594.97;;;13.83;70.07
58761;BME280;44529;47.464;19.014;2023-02-18T10:28:03;100583.47;;;13.87;69.66
58761;BME280;44529;47.464;19.014;2023-02-18T10:31:12;100583.59;;;13.90;69.39
58761;BME280;44529;47.464;19.014;2023-02-18T10:34:18;100595.44;;;13.94;69.40
58761;BME280;44529;47.464;19.014;2023-02-18T10:40:57;100585.47;;;14.07;69.44
58761;BME280;44529;47.464;19.014;2023-02-18T10:44:12;100577.78;;;14.09;69.45
58761;BME280;44529;47.464;19.014;2023-02-18T10:50:41;100563.53;;;14.12;69.80
58761;BME280;44529;47.464;19.014;2023-02-18T10:53:44;100558.03;;;14.21;70.13
58761;BME280;44529;47.464;19.014;2023-02-18T10:56:49;100560.25;;;14.27;70.20
58761;BME280;44529;47.464;19.014;2023-02-18T11:03:21;100551.16;;;14.23;69.62
58761;BME280;44529;47.464;19.014;2023-02-18T11:06:40;100554.91;;;14.40;69.66
58761;BME280;44529;47.464;19.014;2023-02-18T11:09:57;100543.22;;;14.39;69.60
58761;BME280;44529;47.464;19.014;2023-02-18T11:13:04;100549.56;;;14.52;69.13
58761;BME280;44529;47.464;19.014;2023-02-18T11:16:07;100533.44;;;14.47;69.54
58761;BME280;44529;47.464;19.014;2023-02-18T11:19:33;100532.31;;;14.48;69.13
58761;BME280;44529;47.464;19.014;2023-02-18T11:22:36;100533.75;;;14.45;69.18
58761;BME280;44529;47.464;19.014;2023-02-18T11:25:41;100533.72;;;14.54;68.77
58761;BME280;44529;47.464;19.014;2023-02-18T11:28:59;100536.69;;;14.61;68.46
58761;BME280;44529;47.464;19.014;2023-02-18T11:32:02;100524.22;;;14.60;68.39
58761;BME280;44529;47.464;19.014;2023-02-18T11:35:05;100509.47;;;14.61;68.28
58761;BME280;44529;47.464;19.014;2023-02-18T11:38:21;100505.25;;;14.72;67.99
58761;BME280;44529;47.464;19.014;2023-02-18T11:41:34;100512.81;;;14.67;68.59
58761;BME280;44529;47.464;19.014;2023-02-18T11:44:48;100491.44;;;14.56;69.06
58761;BME280;44529;47.464;19.014;2023-02-18T11:47:58;100488.84;;;14.60;69.34
58761;BME280;44529;47.464;19.014;2023-02-18T11:51:01;100484.06;;;14.57;70.27
58761;BME280;44529;47.464;19.014;2023-02-18T11:54:21;100486.19;;;14.72;68.70
58761;BME280;44529;47.464;19.014;2023-02-18T11:57:24;100483.06;;;14.61;69.89
58761;BME280;44529;47.464;19.014;2023-02-18T12:00:40;100477.56;;;14.70;69.37
58761;BME280;44529;47.464;19.014;2023-02-18T12:03:50;100469.66;;;14.77;68.88
58761;BME280;44529;47.464;19.014;2023-02-18T12:10:30;100460.50;;;14.82;66.92
58761;BME280;44529;47.464;19.014;2023-02-18T12:13:36;100448.38;;;14.92;66.89
58761;BME280;44529;47.464;19.014;2023-02-18T12:33:50;100412.31;;;15.07;63.61
58761;BME280;44529;47.464;19.014;2023-02-18T12:40:15;100410.97;;;15.13;62.77
58761;BME280;44529;47.464;19.014;2023-02-18T13:06:36;100380.53;;;16.09;59.17
58761;BME280;44529;47.464;19.014;2023-02-18T13:13:29;100356.09;;;16.12;59.13
58761;BME280;44529;47.464;19.014;2023-02-18T13:16:33;100352.16;;;16.38;58.57
58761;BME280;44529;47.464;19.014;2023-02-18T13:19:46;100352.78;;;16.47;58.09
58761;BME280;44529;47.464;19.014;2023-02-18T13:22:51;100363.28;;;16.61;57.51
58761;BME280;44529;47.464;19.014;2023-02-18T13:25:58;100354.72;;;16.46;57.54
58761;BME280;44529;47.464;19.014;2023-02-18T13:45:32;100336.31;;;16.43;56.58
58761;BME280;44529;47.464;19.014;2023-02-18T13:51:46;100325.59;;;16.50;56.92
58761;BME280;44529;47.464;19.014;2023-02-18T13:54:49;100309.44;;;16.30;57.58
58761;BME280;44529;47.464;19.014;2023-02-18T13:57:54;100300.69;;;16.24;58.19
58761;BME280;44529;47.464;19.014;2023-02-18T14:07:46;100286.16;;;16.20;58.47
58761;BME280;44529;47.464;19.014;2023-02-18T14:17:33;100268.25;;;16.07;60.05
58761;BME280;44529;47.464;19.014;2023-02-18T14:24:02;100251.84;;;16.35;59.09
58761;BME280;44529;47.464;19.014;2023-02-18T14:27:14;100257.78;;;16.37;58.75
58761;BME280;44529;47.464;19.014;2023-02-18T14:33:23;100241.34;;;16.21;59.23
58761;BME280;44529;47.464;19.014;2023-02-18T14:46:48;100229.03;;;17.22;55.94
58761;BME280;44529;47.464;19.014;2023-02-18T14:49:58;100237.47;;;17.87;54.13
58761;BME280;44529;47.464;19.014;2023-02-18T14:53:07;100229.97;;;17.45;55.26
58761;BME280;44529;47.464;19.014;2023-02-18T14:56:17;100222.28;;;17.00;56.44
58761;BME280;44529;47.464;19.014;2023-02-18T14:59:20;100224.59;;;16.66;57.38
58761;BME280;44529;47.464;19.014;2023-02-18T15:02:28;100217.16;;;16.35;57.19
58761;BME280;44529;47.464;19.014;2023-02-18T15:05:36;100219.94;;;16.07;56.87
58761;BME280;44529;47.464;19.014;2023-02-18T15:08:39;100213.34;;;15.52;57.56
58761;BME280;44529;47.464;19.014;2023-02-18T15:11:44;100224.41;;;15.19;58.23
58761;BME280;44529;47.464;19.014;2023-02-18T15:14:51;100219.44;;;15.09;57.76
58761;BME280;44529;47.464;19.014;2023-02-18T15:17:54;100215.56;;;14.98;57.86
58761;BME280;44529;47.464;19.014;2023-02-18T15:21:02;100204.91;;;14.68;58.12
58761;BME280;44529;47.464;19.014;2023-02-18T15:24:10;100200.16;;;14.53;58.56
58761;BME280;44529;47.464;19.014;2023-02-18T15:27:27;100222.28;;;14.18;59.09
58761;BME280;44529;47.464;19.014;2023-02-18T15:30:30;100217.81;;;14.01;59.48
58761;BME280;44529;47.464;19.014;2023-02-18T15:33:33;100225.03;;;13.97;59.89
58761;BME280;44529;47.464;19.014;2023-02-18T15:36:35;100220.13;;;13.91;59.94
58761;BME280;44529;47.464;19.014;2023-02-18T15:39:38;100218.84;;;13.76;60.49
58761;BME280;44529;47.464;19.014;2023-02-18T15:42:41;100224.88;;;13.61;61.21
58761;BME280;44529;47.464;19.014;2023-02-18T15:45:45;100218.06;;;13.54;61.37
58761;BME280;44529;47.464;19.014;2023-02-18T15:48:52;100216.66;;;13.27;62.21
58761;BME280;44529;47.464;19.014;2023-02-18T15:51:58;100204.62;;;13.08;62.12
58761;BME280;44529;47.464;19.014;2023-02-18T15:55:05;100214.13;;;12.93;62.94
58761;BME280;44529;47.464;19.014;2023-02-18T15:58:29;100223.00;;;12.72;64.03
58761;BME280;44529;47.464;19.014;2023-02-18T16:01:32;100213.59;;;12.70;63.19
58761;BME280;44529;47.464;19.014;2023-02-18T16:04:40;100209.47;;;12.64;63.02
58761;BME280;44529;47.464;19.014;2023-02-18T16:07:58;100200.56;;;12.63;62.75
58761;BME280;44529;47.464;19.014;2023-02-18T16:11:05;100206.69;;;12.43;63.70
58761;BME280;44529;47.464;19.014;2023-02-18T16:17:36;100204.03;;;12.17;64.32
58761;BME280;44529;47.464;19.014;2023-02-18T16:20:38;100203.59;;;11.98;65.43
58761;BME280;44529;47.464;19.014;2023-02-18T16:23:50;100199.00;;;11.81;66.04
58761;BME280;44529;47.464;19.014;2023-02-18T16:27:00;100205.69;;;11.83;66.00
58761;BME280;44529;47.464;19.014;2023-02-18T16:30:19;100193.75;;;11.84;65.75
58761;BME280;44529;47.464;19.014;2023-02-18T16:33:22;100195.63;;;11.75;66.34
58761;BME280;44529;47.464;19.014;2023-02-18T16:36:25;100187.22;;;11.68;66.67
58761;BME280;44529;47.464;19.014;2023-02-18T16:39:30;100190.41;;;11.61;67.27
58761;BME280;44529;47.464;19.014;2023-02-18T16:42:34;100191.34;;;11.48;67.50
58761;BME280;44529;47.464;19.014;2023-02-18T16:45:41;100180.50;;;11.39;67.67
58761;BME280;44529;47.464;19.014;2023-02-18T16:48:45;100177.34;;;11.37;68.34
58761;BME280;44529;47.464;19.014;2023-02-18T16:51:50;100178.12;;;11.38;67.77
58761;BME280;44529;47.464;19.014;2023-02-18T16:54:52;100171.75;;;11.17;68.41
58761;BME280;44529;47.464;19.014;2023-02-18T16:57:56;100172.53;;;11.17;68.40
58761;BME280;44529;47.464;19.014;2023-02-18T17:00:59;100184.97;;;11.09;69.01
58761;BME280;44529;47.464;19.014;2023-02-18T17:04:02;100177.78;;;11.05;69.23
58761;BME280;44529;47.464;19.014;2023-02-18T17:07:10;100194.00;;;10.96;70.25
58761;BME280;44529;47.464;19.014;2023-02-18T17:10:13;100194.16;;;10.91;69.71
58761;BME280;44529;47.464;19.014;2023-02-18T17:13:21;100191.59;;;10.86;69.79
58761;BME280;44529;47.464;19.014;2023-02-18T17:16:25;100194.94;;;10.83;69.94
58761;BME280;44529;47.464;19.014;2023-02-18T17:19:28;100194.09;;;10.74;70.10
58761;BME280;44529;47.464;19.014;2023-02-18T17:22:30;100196.97;;;10.77;70.23
58761;BME280;44529;47.464;19.014;2023-02-18T17:25:35;100196.00;;;10.73;70.57
58761;BME280;44529;47.464;19.014;2023-02-18T17:28:39;100197.44;;;10.71;71.12
58761;BME280;44529;47.464;19.014;2023-02-18T17:31:43;100208.88;;;10.68;71.19
58761;BME280;44529;47.464;19.014;2023-02-18T17:34:48;100203.13;;;10.61;71.17
58761;BME280;44529;47.464;19.014;2023-02-18T17:37:50;100197.84;;;10.55;71.31
58761;BME280;44529;47.464;19.014;2023-02-18T17:40:52;100195.75;;;10.44;71.85
58761;BME280;44529;47.464;19.014;2023-02-18T17:43:55;100185.84;;;10.39;71.78
58761;BME280;44529;47.464;19.014;2023-02-18T17:46:57;100185.22;;;10.42;72.05
58761;BME280;44529;47.464;19.014;2023-02-18T17:49:59;100193.78;;;10.36;72.19
58761;BME280;44529;47.464;19.014;2023-02-18T17:53:01;100192.84;;;10.40;71.91
58761;BME280;44529;47.464;19.014;2023-02-18T17:56:04;100186.13;;;10.29;72.55
58761;BME280;44529;47.464;19.014;2023-02-18T17:59:06;100176.25;;;10.24;73.25
58761;BME280;44529;47.464;19.014;2023-02-18T18:02:24;100174.34;;;10.25;72.88
58761;BME280;44529;47.464;19.014;2023-02-18T18:05:29;100183.34;;;10.20;73.24
58761;BME280;44529;47.464;19.014;2023-02-18T18:08:33;100175.25;;;10.20;73.15
58761;BME280;44529;47.464;19.014;2023-02-18T18:11:36;100170.75;;;10.16;73.45
58761;BME280;44529;47.464;19.014;2023-02-18T18:14:38;100178.56;;;10.17;73.62
58761;BME280;44529;47.464;19.014;2023-02-18T18:17:40;100187.53;;;10.26;73.28
58761;BME280;44529;47.464;19.014;2023-02-18T18:20:52;100185.44;;;10.23;73.58
58761;BME280;44529;47.464;19.014;2023-02-18T18:23:55;100184.59;;;10.14;73.70
58761;BME280;44529;47.464;19.014;2023-02-18T18:26:57;100187.41;;;10.09;73.88